Time,TemperatureF,DewpointF,PressureIn,WindDirection,WindDirectionDegrees,WindSpeedMPH,WindSpeedGustMPH,Humidity,HourlyPrecipIn,Conditions,Clouds,dailyrainin,SoftwareType,DateUTC
2013-03-08 00:00:00,29.9,26.0,30.28,WNW,303,0.0,-999.0,84,-99.99,,,0.00,weatherlink.com 1.10,2013-03-08 05:00:00,
2013-03-08 00:15:00,29.7,25.0,30.28,North,11,0.0,-999.0,84,-99.99,,,0.00,weatherlink.com 1.10,2013-03-08 05:15:00,
2013-03-08 00:30:00,29.5,26.0,30.27,NNW,338,0.0,-999.0,85,-99.99,,,0.00,weatherlink.com 1.10,2013-03-08 05:30:00,
2013-03-08 00:45:00,29.3,25.0,30.27,West,271,0.0,-999.0,85,-99.99,,,0.00,weatherlink.com 1.10,2013-03-08 05:45:00,
2013-03-08 01:00:00,29.3,25.0,30.27,North,351,0.0,-999.0,85,-99.99,,,0.00,weatherlink.com 1.10,2013-03-08 06:00:00,
2013-03-08 01:15:00,29.3,26.0,30.27,NNW,329,0.0,-999.0,86,-99.99,,,0.00,weatherlink.com 1.10,2013-03-08 06:15:00,
2013-03-08 01:30:00,29.3,26.0,30.28,North,351,0.0,-999.0,86,-99.99,,,0.00,weatherlink.com 1.10,2013-03-08 06:30:00,
2013-03-08 01:45:00,29.1,25.0,30.28,North,5,0.0,-999.0,86,-99.99,,,0.00,weatherlink.com 1.10,2013-03-08 06:45:00,
2013-03-08 02:00:00,29.0,26.0,30.28,North,5,0.0,-999.0,87,-99.99,,,0.00,weatherlink.com 1.10,2013-03-08 07:00:00,
2013-03-08 02:15:00,28.8,25.0,30.29,North,5,0.0,-999.0,87,-99.99,,,0.00,weatherlink.com 1.10,2013-03-08 07:15:00,
2013-03-08 02:30:00,28.8,25.0,30.29,North,5,0.0,-999.0,87,-99.99,,,0.00,weatherlink.com 1.10,2013-03-08 07:30:00,
2013-03-08 02:45:00,28.6,25.0,30.29,North,5,0.0,-999.0,87,-99.99,,,0.00,weatherlink.com 1.10,2013-03-08 07:45:00,
2013-03-08 03:00:00,28.3,25.0,30.29,NNE,17,0.0,-999.0,88,-99.99,,,0.00,weatherlink.com 1.10,2013-03-08 08:00:00,
2013-03-08 03:15:00,28.4,25.0,30.28,NNW,345,1.0,-999.0,87,-99.99,,,0.00,weatherlink.com 1.10,2013-03-08 08:15:00,
2013-03-08 03:30:00,28.5,25.0,30.28,WSW,250,2.0,-999.0,86,-99.99,,,0.00,weatherlink.com 1.10,2013-03-08 08:30:00,
2013-03-08 03:45:00,28.6,25.0,30.27,WNW,302,0.0,-999.0,86,-99.99,,,0.00,weatherlink.com 1.10,2013-03-08 08:45:00,
2013-03-08 04:00:00,28.7,25.0,30.27,NNE,23,0.0,-999.0,85,-99.99,,,0.00,weatherlink.com 1.10,2013-03-08 09:00:00,
2013-03-08 04:15:00,28.8,25.0,30.27,WSW,237,0.0,-999.0,85,-99.99,,,0.00,weatherlink.com 1.10,2013-03-08 09:15:00,
2013-03-08 04:30:00,28.7,25.0,30.28,NNW,345,0.0,-999.0,85,-99.99,,,0.00,weatherlink.com 1.10,2013-03-08 09:30:00,
2013-03-08 04:45:00,28.7,25.0,30.28,NNW,345,0.0,-999.0,85,-99.99,,,0.00,weatherlink.com 1.10,2013-03-08 09:45:00,
2013-03-08 05:00:00,28.7,25.0,30.29,SSW,205,0.0,-999.0,85,-99.99,,,0.00,weatherlink.com 1.10,2013-03-08 10:00:00,
2013-03-08 05:15:00,28.4,25.0,30.29,NW,316,0.0,-999.0,85,-99.99,,,0.00,weatherlink.com 1.10,2013-03-08 10:15:00,
2013-03-08 05:30:00,28.5,25.0,30.30,West,272,0.0,-999.0,85,-99.99,,,0.00,weatherlink.com 1.10,2013-03-08 10:30:00,
2013-03-08 05:45:00,28.4,25.0,30.30,WSW,240,0.0,-999.0,85,-99.99,,,0.00,weatherlink.com 1.10,2013-03-08 10:45:00,
2013-03-08 06:00:00,28.4,25.0,30.31,WNW,288,0.0,-999.0,85,-99.99,,,0.00,weatherlink.com 1.10,2013-03-08 11:00:00,
2013-03-08 06:15:00,28.2,24.0,30.31,West,271,0.0,-999.0,85,-99.99,,,0.00,weatherlink.com 1.10,2013-03-08 11:15:00,
2013-03-08 06:30:00,28.2,24.0,30.32,WNW,283,0.0,-999.0,85,-99.99,,,0.00,weatherlink.com 1.10,2013-03-08 11:30:00,
2013-03-08 06:45:00,28.0,24.0,30.32,SW,231,1.0,-999.0,85,-99.99,,,0.00,weatherlink.com 1.10,2013-03-08 11:45:00,
2013-03-08 07:00:00,27.8,24.0,30.32,NNW,347,1.0,-999.0,86,-99.99,,,0.00,weatherlink.com 1.10,2013-03-08 12:00:00,
2013-03-08 07:16:00,28.1,24.0,30.33,WNW,283,0.0,-999.0,85,-99.99,,,0.00,weatherlink.com 1.10,2013-03-08 12:16:00,
2013-03-08 07:31:00,28.3,24.0,30.33,North,353,0.0,-999.0,85,-99.99,,,0.00,weatherlink.com 1.10,2013-03-08 12:31:00,
2013-03-08 07:45:00,28.4,24.0,30.32,West,273,0.0,-999.0,84,-99.99,,,0.00,weatherlink.com 1.10,2013-03-08 12:45:00,
2013-03-08 08:00:00,29.1,25.0,30.32,West,270,0.0,-999.0,84,-99.99,,,0.00,weatherlink.com 1.10,2013-03-08 13:00:00,
2013-03-08 08:15:00,29.8,25.0,30.33,NNW,343,0.0,-999.0,82,-99.99,,,0.00,weatherlink.com 1.10,2013-03-08 13:15:00,
2013-03-08 08:30:00,30.8,25.0,30.33,NW,318,0.0,-999.0,80,-99.99,,,0.00,weatherlink.com 1.10,2013-03-08 13:30:00,
2013-03-08 08:45:00,31.6,25.0,30.34,North,2,1.0,-999.0,78,-99.99,,,0.00,weatherlink.com 1.10,2013-03-08 13:45:00,
2013-03-08 09:00:00,32.1,26.0,30.34,WSW,254,0.0,-999.0,77,-99.99,,,0.00,weatherlink.com 1.10,2013-03-08 14:00:00,
2013-03-08 09:15:00,33.0,26.0,30.34,NW,316,1.0,-999.0,74,-99.99,,,0.00,weatherlink.com 1.10,2013-03-08 14:15:00,
2013-03-08 09:30:00,33.8,26.0,30.34,NNE,15,0.0,-999.0,73,-99.99,,,0.00,weatherlink.com 1.10,2013-03-08 14:30:00,
2013-03-08 09:45:00,34.6,26.0,30.34,West,262,0.0,-999.0,71,-99.99,,,0.00,weatherlink.com 1.10,2013-03-08 14:45:00,
2013-03-08 10:00:00,35.4,26.0,30.34,WNW,291,0.0,-999.0,69,-99.99,,,0.00,weatherlink.com 1.10,2013-03-08 15:00:00,
2013-03-08 10:15:00,35.0,26.0,30.34,WNW,291,0.0,-999.0,71,-99.99,,,0.00,weatherlink.com 1.10,2013-03-08 15:15:00,
2013-03-08 10:30:00,36.1,27.0,30.34,WSW,237,0.0,-999.0,69,-99.99,,,0.00,weatherlink.com 1.10,2013-03-08 15:30:00,
2013-03-08 10:45:00,36.8,27.0,30.34,WSW,237,0.0,-999.0,68,-99.99,,,0.00,weatherlink.com 1.10,2013-03-08 15:45:00,
2013-03-08 11:00:00,38.4,27.0,30.34,WSW,239,2.0,-999.0,65,-99.99,,,0.00,weatherlink.com 1.10,2013-03-08 16:00:00,
2013-03-08 11:15:00,38.5,28.0,30.34,South,181,0.0,-999.0,65,-99.99,,,0.00,weatherlink.com 1.10,2013-03-08 16:15:00,
2013-03-08 11:30:00,39.5,28.0,30.35,SW,231,0.0,-999.0,63,-99.99,,,0.00,weatherlink.com 1.10,2013-03-08 16:30:00,
2013-03-08 11:45:00,40.4,28.0,30.35,West,266,0.0,-999.0,61,-99.99,,,0.00,weatherlink.com 1.10,2013-03-08 16:45:00,
2013-03-08 12:00:00,41.5,28.0,30.34,North,2,0.0,-999.0,59,-99.99,,,0.00,weatherlink.com 1.10,2013-03-08 17:00:00,
2013-03-08 12:15:00,42.7,28.0,30.35,WSW,242,0.0,-999.0,57,-99.99,,,0.00,weatherlink.com 1.10,2013-03-08 17:15:00,
2013-03-08 12:30:00,43.3,28.0,30.35,South,190,0.0,-999.0,55,-99.99,,,0.00,weatherlink.com 1.10,2013-03-08 17:30:00,
2013-03-08 12:45:00,45.4,29.0,30.34,NNE,33,0.0,-999.0,52,-99.99,,,0.00,weatherlink.com 1.10,2013-03-08 17:45:00,
2013-03-08 13:04:00,45.6,28.0,30.34,WNW,287,1.0,-999.0,51,-99.99,,,0.00,weatherlink.com 1.10,2013-03-08 18:04:00,
2013-03-08 13:15:00,48.1,29.0,30.32,NNE,32,1.0,-999.0,48,-99.99,,,0.00,weatherlink.com 1.10,2013-03-08 18:15:00,
2013-03-08 13:30:00,49.1,27.0,30.31,SW,222,0.0,-999.0,43,-99.99,,,0.00,weatherlink.com 1.10,2013-03-08 18:30:00,
2013-03-08 13:45:00,49.4,27.0,30.29,West,280,0.0,-999.0,42,-99.99,,,0.00,weatherlink.com 1.10,2013-03-08 18:45:00,
2013-03-08 14:00:00,51.5,28.0,30.28,West,266,2.0,-999.0,40,-99.99,,,0.00,weatherlink.com 1.10,2013-03-08 19:00:00,
2013-03-08 14:15:00,52.8,29.0,30.27,NE,39,1.0,-999.0,40,-99.99,,,0.00,weatherlink.com 1.10,2013-03-08 19:15:00,
2013-03-08 14:30:00,52.1,26.0,30.27,NNW,332,0.0,-999.0,36,-99.99,,,0.00,weatherlink.com 1.10,2013-03-08 19:30:00,
2013-03-08 14:45:00,53.3,25.0,30.27,NNW,340,1.0,-999.0,33,-99.99,,,0.00,weatherlink.com 1.10,2013-03-08 19:45:00,
2013-03-08 15:00:00,53.0,24.0,30.26,West,260,1.0,-999.0,32,-99.99,,,0.00,weatherlink.com 1.10,2013-03-08 20:00:00,
2013-03-08 15:15:00,53.7,24.0,30.26,NNE,29,0.0,-999.0,32,-99.99,,,0.00,weatherlink.com 1.10,2013-03-08 20:15:00,
2013-03-08 15:30:00,54.3,23.0,30.27,NW,319,0.0,-999.0,30,-99.99,,,0.00,weatherlink.com 1.10,2013-03-08 20:30:00,
2013-03-08 15:45:00,55.0,26.0,30.26,NNE,25,0.0,-999.0,33,-99.99,,,0.00,weatherlink.com 1.10,2013-03-08 20:45:00,
2013-03-08 16:00:00,55.4,24.0,30.26,NNE,29,2.0,-999.0,30,-99.99,,,0.00,weatherlink.com 1.10,2013-03-08 21:00:00,
2013-03-08 16:15:00,54.8,24.0,30.26,NNW,338,1.0,-999.0,30,-99.99,,,0.00,weatherlink.com 1.10,2013-03-08 21:15:00,
2013-03-08 16:30:00,54.2,22.0,30.27,SSE,164,0.0,-999.0,28,-99.99,,,0.00,weatherlink.com 1.10,2013-03-08 21:30:00,
2013-03-08 16:45:00,54.2,23.0,30.26,West,264,0.0,-999.0,30,-99.99,,,0.00,weatherlink.com 1.10,2013-03-08 21:45:00,
2013-03-08 17:00:00,54.2,25.0,30.27,WNW,297,1.0,-999.0,32,-99.99,,,0.00,weatherlink.com 1.10,2013-03-08 22:00:00,
2013-03-08 17:15:00,53.7,24.0,30.26,WNW,295,1.0,-999.0,32,-99.99,,,0.00,weatherlink.com 1.10,2013-03-08 22:15:00,
2013-03-08 17:30:00,52.8,25.0,30.27,West,277,0.0,-999.0,34,-99.99,,,0.00,weatherlink.com 1.10,2013-03-08 22:30:00,
2013-03-08 17:45:00,52.3,24.0,30.27,West,274,0.0,-999.0,33,-99.99,,,0.00,weatherlink.com 1.10,2013-03-08 22:45:00,
2013-03-08 18:00:00,51.5,25.0,30.27,NNW,341,0.0,-999.0,36,-99.99,,,0.00,weatherlink.com 1.10,2013-03-08 23:00:00,
2013-03-08 18:15:00,50.3,25.0,30.26,WSW,255,0.0,-999.0,37,-99.99,,,0.00,weatherlink.com 1.10,2013-03-08 23:15:00,
2013-03-08 18:30:00,49.6,25.0,30.26,West,261,0.0,-999.0,39,-99.99,,,0.00,weatherlink.com 1.10,2013-03-08 23:30:00,
2013-03-08 18:45:00,49.1,25.0,30.27,West,261,0.0,-999.0,39,-99.99,,,0.00,weatherlink.com 1.10,2013-03-08 23:45:00,
2013-03-08 19:00:00,48.6,24.0,30.28,West,261,0.0,-999.0,39,-99.99,,,0.00,weatherlink.com 1.10,2013-03-09 00:00:00,
2013-03-08 19:15:00,48.3,24.0,30.27,West,261,0.0,-999.0,39,-99.99,,,0.00,weatherlink.com 1.10,2013-03-09 00:15:00,
2013-03-08 19:30:00,47.6,26.0,30.27,West,261,0.0,-999.0,43,-99.99,,,0.00,weatherlink.com 1.10,2013-03-09 00:30:00,
2013-03-08 19:45:00,46.8,25.0,30.27,West,261,0.0,-999.0,43,-99.99,,,0.00,weatherlink.com 1.10,2013-03-09 00:45:00,
2013-03-08 20:00:00,45.8,25.0,30.27,WSW,240,0.0,-999.0,45,-99.99,,,0.00,weatherlink.com 1.10,2013-03-09 01:00:00,
2013-03-08 20:15:00,44.7,25.0,30.27,WSW,243,0.0,-999.0,47,-99.99,,,0.00,weatherlink.com 1.10,2013-03-09 01:15:00,
2013-03-08 20:30:00,44.7,25.0,30.27,SSW,213,1.0,-999.0,47,-99.99,,,0.00,weatherlink.com 1.10,2013-03-09 01:30:00,
2013-03-08 20:45:00,44.3,25.0,30.27,WSW,252,0.0,-999.0,47,-99.99,,,0.00,weatherlink.com 1.10,2013-03-09 01:45:00,
2013-03-08 21:00:00,44.4,25.0,30.27,SW,235,0.0,-999.0,47,-99.99,,,0.00,weatherlink.com 1.10,2013-03-09 02:00:00,
2013-03-08 21:15:00,44.3,25.0,30.27,SW,224,0.0,-999.0,46,-99.99,,,0.00,weatherlink.com 1.10,2013-03-09 02:15:00,
2013-03-08 21:30:00,43.7,25.0,30.27,WSW,241,2.0,-999.0,48,-99.99,,,0.00,weatherlink.com 1.10,2013-03-09 02:30:00,
2013-03-08 21:45:00,43.6,25.0,30.26,WSW,242,0.0,-999.0,49,-99.99,,,0.00,weatherlink.com 1.10,2013-03-09 02:45:00,
2013-03-08 22:00:00,43.4,25.0,30.27,SW,235,0.0,-999.0,48,-99.99,,,0.00,weatherlink.com 1.10,2013-03-09 03:00:00,
2013-03-08 22:15:00,43.5,25.0,30.27,SW,229,0.0,-999.0,49,-99.99,,,0.00,weatherlink.com 1.10,2013-03-09 03:15:00,
2013-03-08 22:30:00,42.7,25.0,30.26,WSW,243,0.0,-999.0,50,-99.99,,,0.00,weatherlink.com 1.10,2013-03-09 03:30:00,
2013-03-08 22:45:00,42.4,25.0,30.26,SW,216,0.0,-999.0,50,-99.99,,,0.00,weatherlink.com 1.10,2013-03-09 03:45:00,
2013-03-08 23:00:00,42.6,25.0,30.26,SW,218,0.0,-999.0,50,-99.99,,,0.00,weatherlink.com 1.10,2013-03-09 04:00:00,
2013-03-08 23:15:00,43.3,24.0,30.27,SW,218,0.0,-999.0,47,-99.99,,,0.00,weatherlink.com 1.10,2013-03-09 04:15:00,
2013-03-08 23:30:00,43.0,24.0,30.27,SW,218,1.0,-999.0,48,-99.99,,,0.00,weatherlink.com 1.10,2013-03-09 04:30:00,
2013-03-08 23:45:00,42.5,25.0,30.27,SW,227,0.0,-999.0,50,-99.99,,,0.00,weatherlink.com 1.10,2013-03-09 04:45:00,